Dades meteomassalio
Diari Summary for Setembre 15, 2017 Units:  Metric    English   Both
« Previous Day
Next Day »
Diari Semanal Mensual Anual Personalitzat
  Maxima: Minima: Mijana:
Temperatura: 16.7 °C 8.3 °C 12.9 °C
Rosada: 10.8 °C 4.7 °C 8 °C
Humitat: 91 % 50 % 74 %
Velocitat del vent: 25.9 km/h 0.0 km/h 9.7 km/h
Racha vent: 25.9 km/h - -
Vent:- - SSW
Pressio: 1020.5 hPa 1016.8 hPa -
Pluja: 8.4 mm    
Historical Graphs
 
 
Tabular Data for Setembre 15, 2017
Time Temperature Dew Point Pressure Wind Wind Speed Wind Gust Humidity Rainfall Rate (Hourly) solar Conditions
00:04 16.7 °C 6.2 °C 1020.5 hPa SSW 19.3 km/h 19.3 km/h 50 % 0.0 mm 0.0 W/m2 CLR
00:09 16.7 °C 6.2 °C 1020.5 hPa SSW 18.5 km/h 18.5 km/h 50 % 0.0 mm 0.0 W/m2 CLR
00:14 16.7 °C 6.2 °C 1020.5 hPa South 11.1 km/h 11.1 km/h 50 % 0.0 mm 0.0 W/m2 CLR
00:19 16.7 °C 6.5 °C 1020.5 hPa South 11.1 km/h 11.1 km/h 51 % 0.0 mm 0.0 W/m2 CLR
00:24 16.7 °C 6.5 °C 1020.5 hPa SSW 13.0 km/h 13.0 km/h 51 % 0.0 mm 0.0 W/m2 CLR
00:29 16.1 °C 5.9 °C 1020.5 hPa South 3.7 km/h 3.7 km/h 51 % 0.0 mm 0.0 W/m2 CLR
00:34 16.1 °C 6.2 °C 1020.5 hPa SSW 18.5 km/h 18.5 km/h 52 % 0.0 mm 0.0 W/m2 CLR
00:39 16.1 °C 5.9 °C 1020.5 hPa SSE 13.0 km/h 13.0 km/h 51 % 0.0 mm 0.0 W/m2 CLR
00:44 16.1 °C 5.9 °C 1020.5 hPa South 7.4 km/h 7.4 km/h 51 % 0.0 mm 0.0 W/m2 CLR
00:49 16.1 °C 5.9 °C 1020.5 hPa SW 18.5 km/h 18.5 km/h 51 % 0.0 mm 0.0 W/m2 CLR
00:54 15.6 °C 5.7 °C 1020.5 hPa SSE 14.8 km/h 14.8 km/h 52 % 0.0 mm 0.0 W/m2 CLR
00:59 15.6 °C 5.7 °C 1020.5 hPa SSW 12.9 km/h 12.9 km/h 52 % 0.0 mm 0.0 W/m2 CLR
01:04 15.6 °C 5.7 °C 1020.5 hPa South 16.7 km/h 16.7 km/h 52 % 0.0 mm 0.0 W/m2 CLR
01:09 15.6 °C 5.4 °C 1020.5 hPa South 14.8 km/h 14.8 km/h 51 % 0.0 mm 0.0 W/m2 CLR
01:14 15.6 °C 5.4 °C 1020.2 hPa SSW 18.5 km/h 18.5 km/h 51 % 0.0 mm 0.0 W/m2 CLR
01:19 15.0 °C 4.7 °C 1020.2 hPa SSW 16.7 km/h 16.7 km/h 50 % 0.0 mm 0.0 W/m2 CLR
01:24 15.0 °C 4.7 °C 1020.2 hPa SSW 13.0 km/h 13.0 km/h 50 % 0.0 mm 0.0 W/m2 CLR
01:29 15.6 °C 5.2 °C 1020.2 hPa South 13.0 km/h 13.0 km/h 50 % 0.0 mm 0.0 W/m2 CLR
01:34 15.0 °C 4.9 °C 1020.2 hPa Calm     51 % 0.0 mm 0.0 W/m2 CLR
01:39 15.0 °C 4.7 °C 1020.2 hPa Calm     50 % 0.0 mm 0.0 W/m2 CLR
01:44 15.0 °C 4.7 °C 1020.2 hPa SSE 1.9 km/h 1.9 km/h 50 % 0.0 mm 0.0 W/m2 CLR
01:49 15.0 °C 4.7 °C 1019.9 hPa SSW 3.7 km/h 3.7 km/h 50 % 0.0 mm 0.0 W/m2 CLR
01:54 15.6 °C 5.2 °C 1019.9 hPa South 9.3 km/h 9.3 km/h 50 % 0.0 mm 0.0 W/m2 CLR
01:59 15.6 °C 5.2 °C 1019.9 hPa SSW 16.7 km/h 16.7 km/h 50 % 0.0 mm 0.0 W/m2 CLR
02:04 15.6 °C 5.4 °C 1019.9 hPa South 1.6 km/h   51 % 0.0 mm 0.0 W/m2 CLR
02:09 15.0 °C 4.9 °C 1019.9 hPa South 5.6 km/h 5.6 km/h 51 % 0.0 mm 0.0 W/m2 CLR
02:14 15.0 °C 4.9 °C 1019.9 hPa Calm     51 % 0.0 mm 0.0 W/m2 CLR
02:19 15.0 °C 4.9 °C 1019.9 hPa Calm     51 % 0.0 mm 0.0 W/m2 CLR
02:24 15.6 °C 5.7 °C 1019.9 hPa Calm     52 % 0.0 mm 0.0 W/m2 CLR
02:29 15.6 °C 5.7 °C 1019.9 hPa Calm     52 % 0.0 mm 0.0 W/m2 CLR
02:34 15.6 °C 5.7 °C 1019.9 hPa Calm     52 % 0.0 mm 0.0 W/m2 CLR
02:39 15.6 °C 5.7 °C 1019.5 hPa Calm     52 % 0.0 mm 0.0 W/m2 CLR
02:44 15.0 °C 5.5 °C 1019.5 hPa Calm     53 % 0.0 mm 0.0 W/m2 CLR
02:49 15.0 °C 5.5 °C 1019.5 hPa South 1.9 km/h   53 % 0.0 mm 0.0 W/m2 CLR
02:54 15.0 °C 5.5 °C 1019.5 hPa Calm     53 % 0.0 mm 0.0 W/m2 CLR
02:59 15.0 °C 5.5 °C 1019.5 hPa Calm     53 % 0.0 mm 0.0 W/m2 CLR
03:04 15.0 °C 5.8 °C 1019.5 hPa Calm     54 % 0.0 mm 0.0 W/m2 CLR
03:09 15.0 °C 5.8 °C 1019.5 hPa Calm     54 % 0.0 mm 0.0 W/m2 CLR
03:14 15.0 °C 6.0 °C 1019.5 hPa Calm     55 % 0.0 mm 0.0 W/m2 CLR
03:19 15.0 °C 6.0 °C 1019.2 hPa Calm     55 % 0.0 mm 0.0 W/m2 CLR
03:24 15.0 °C 6.3 °C 1019.2 hPa SSW 7.4 km/h 7.4 km/h 56 % 0.0 mm 0.0 W/m2 CLR
03:29 15.0 °C 6.3 °C 1019.2 hPa SSW 13.0 km/h 13.0 km/h 56 % 0.0 mm 0.0 W/m2 CLR
03:34 15.0 °C 6.3 °C 1019.2 hPa SSW 5.6 km/h 5.6 km/h 56 % 0.0 mm 0.0 W/m2 CLR
03:39 15.0 °C 6.3 °C 1019.2 hPa SSW 16.7 km/h 16.7 km/h 56 % 0.0 mm 0.0 W/m2 CLR
03:44 15.0 °C 6.3 °C 1019.2 hPa SSW 5.6 km/h 5.6 km/h 56 % 0.0 mm 0.0 W/m2 CLR
03:49 15.0 °C 6.3 °C 1019.2 hPa SSW 5.6 km/h 5.6 km/h 56 % 0.0 mm 0.0 W/m2 CLR
03:54 15.0 °C 6.6 °C 1019.2 hPa SSW 5.6 km/h   57 % 0.0 mm 0.0 W/m2 CLR
03:59 15.0 °C 6.6 °C 1019.2 hPa Calm     57 % 0.0 mm 0.0 W/m2 CLR
04:04 15.0 °C 6.6 °C 1018.8 hPa Calm     57 % 0.0 mm 0.0 W/m2 CLR
04:09 15.0 °C 6.6 °C 1018.8 hPa Calm     57 % 0.0 mm 0.0 W/m2 CLR
04:14 15.0 °C 6.6 °C 1018.8 hPa Calm     57 % 0.0 mm 0.0 W/m2 CLR
04:20 15.0 °C 6.6 °C 1018.5 hPa Calm     57 % 0.0 mm 0.0 W/m2 CLR
04:25 15.0 °C 6.6 °C 1018.5 hPa Calm     57 % 0.0 mm 0.0 W/m2 CLR
04:30 15.0 °C 6.3 °C 1018.5 hPa SSW 5.6 km/h 5.6 km/h 56 % 0.0 mm 0.0 W/m2 CLR
04:35 15.0 °C 6.3 °C 1018.5 hPa SSW 5.6 km/h 5.6 km/h 56 % 0.0 mm 0.0 W/m2 CLR
04:40 15.0 °C 6.0 °C 1018.5 hPa SW 11.1 km/h 11.1 km/h 55 % 0.0 mm 0.0 W/m2 CLR
04:45 15.0 °C 6.0 °C 1018.5 hPa SW 14.8 km/h 14.8 km/h 55 % 0.0 mm 0.0 W/m2 CLR
04:50 15.0 °C 6.0 °C 1018.5 hPa WSW 18.5 km/h 18.5 km/h 55 % 0.0 mm 0.0 W/m2 CLR
04:55 15.0 °C 5.8 °C 1018.5 hPa SSW 18.5 km/h 18.5 km/h 54 % 0.0 mm 0.0 W/m2 CLR
05:00 15.0 °C 6.0 °C 1018.5 hPa SW 11.3 km/h 11.3 km/h 55 % 0.0 mm 0.0 W/m2 CLR
05:05 15.0 °C 5.8 °C 1018.5 hPa SW 6.4 km/h 6.4 km/h 54 % 0.0 mm 0.0 W/m2 CLR
05:10 15.0 °C 5.8 °C 1018.5 hPa SW 16.7 km/h 16.7 km/h 54 % 0.0 mm 0.0 W/m2 CLR
05:15 15.0 °C 5.8 °C 1018.5 hPa SW 14.8 km/h 14.8 km/h 54 % 0.0 mm 0.0 W/m2 CLR
05:21 15.0 °C 6.0 °C 1018.5 hPa SW 13.0 km/h 13.0 km/h 55 % 0.0 mm 0.0 W/m2 CLR
05:22 15.0 °C 6.0 °C 1018.5 hPa WSW 14.8 km/h 14.8 km/h 55 % 0.0 mm 0.0 W/m2 CLR
05:27 15.0 °C 6.0 °C 1018.5 hPa SW 9.7 km/h 9.7 km/h 55 % 0.0 mm 0.0 W/m2 CLR
05:32 15.0 °C 6.0 °C 1018.5 hPa Calm     55 % 0.0 mm 0.0 W/m2 CLR
05:33 15.0 °C 6.3 °C 1018.5 hPa Calm     56 % 0.0 mm 0.0 W/m2 CLR
05:38 15.0 °C 6.3 °C 1018.5 hPa Calm     56 % 0.0 mm 0.0 W/m2 CLR
05:48 14.4 °C 5.8 °C 1018.5 hPa Calm     56 % 0.0 mm 0.0 W/m2 CLR
05:53 14.4 °C 6.0 °C 1018.5 hPa WSW 14.8 km/h 14.8 km/h 57 % 0.0 mm 0.0 W/m2 CLR
05:58 14.4 °C 6.0 °C 1018.5 hPa WSW 14.8 km/h 14.8 km/h 57 % 0.0 mm 0.0 W/m2 CLR
06:03 14.4 °C 6.3 °C 1018.5 hPa WSW 14.8 km/h 14.8 km/h 58 % 0.0 mm 0.0 W/m2 CLR
06:08 14.4 °C 6.3 °C 1018.5 hPa SW 11.1 km/h 11.7 km/h 58 % 0.0 mm 0.0 W/m2 CLR
06:13 14.4 °C 6.3 °C 1018.5 hPa SSW 11.1 km/h 11.1 km/h 58 % 0.0 mm 0.0 W/m2 CLR
06:18 14.4 °C 6.5 °C 1018.5 hPa SW 16.7 km/h 16.7 km/h 59 % 0.0 mm 0.0 W/m2 CLR
06:23 14.4 °C 6.5 °C 1018.5 hPa SW 22.2 km/h 22.2 km/h 59 % 0.0 mm 0.0 W/m2 CLR
06:28 14.4 °C 6.8 °C 1018.5 hPa SW 16.7 km/h 16.7 km/h 60 % 0.0 mm 0.0 W/m2 CLR
06:33 14.4 °C 7.0 °C 1018.5 hPa SW 16.7 km/h 16.7 km/h 61 % 0.0 mm 0.0 W/m2 CLR
06:38 14.4 °C 7.0 °C 1018.5 hPa SW 11.1 km/h 11.1 km/h 61 % 0.0 mm 0.0 W/m2 CLR
06:43 14.4 °C 7.0 °C 1018.2 hPa SW 18.5 km/h 18.5 km/h 61 % 0.0 mm 0.0 W/m2 CLR
06:48 14.4 °C 7.0 °C 1018.2 hPa SSW 11.3 km/h 11.3 km/h 61 % 0.0 mm 0.0 W/m2 CLR
06:53 14.4 °C 7.0 °C 1018.2 hPa SSW 14.8 km/h 14.8 km/h 61 % 0.0 mm 0.0 W/m2 CLR
06:58 14.4 °C 7.2 °C 1018.2 hPa SSW 16.7 km/h 16.7 km/h 62 % 0.0 mm 0.0 W/m2 CLR
07:03 14.4 °C 7.2 °C 1018.2 hPa SW 13.0 km/h 13.0 km/h 62 % 0.0 mm 0.0 W/m2 CLR
07:04 14.4 °C 7.2 °C 1018.2 hPa SW 13.0 km/h 13.0 km/h 62 % 0.0 mm 0.0 W/m2 CLR
07:09 14.4 °C 7.2 °C 1018.2 hPa SSW 14.8 km/h 14.8 km/h 62 % 0.0 mm 0.0 W/m2 CLR
07:14 13.9 °C 6.7 °C 1018.2 hPa SSW 13.0 km/h 13.0 km/h 62 % 0.0 mm 0.0 W/m2 CLR
07:19 13.9 °C 6.7 °C 1018.2 hPa SW 14.8 km/h 14.8 km/h 62 % 0.0 mm 0.0 W/m2 CLR
07:24 13.9 °C 6.7 °C 1018.2 hPa South 14.8 km/h 14.8 km/h 62 % 0.0 mm 0.0 W/m2 CLR
07:29 13.9 °C 6.7 °C 1018.2 hPa SSW 16.1 km/h 16.1 km/h 62 % 0.0 mm 0.0 W/m2 CLR
07:34 13.9 °C 6.7 °C 1018.2 hPa SW 18.5 km/h 18.5 km/h 62 % 0.0 mm 0.0 W/m2 OVC
07:39 13.9 °C 6.9 °C 1018.2 hPa SSW 16.7 km/h 16.7 km/h 63 % 0.0 mm 0.0 W/m2 OVC
07:44 13.9 °C 6.9 °C 1018.2 hPa SSW 14.8 km/h 14.8 km/h 63 % 0.0 mm 0.0 W/m2 OVC
07:49 13.9 °C 6.9 °C 1018.2 hPa SW 14.8 km/h 14.8 km/h 63 % 0.0 mm 5.0 W/m2 OVC
07:54 13.9 °C 6.9 °C 1018.2 hPa SSW 14.8 km/h 14.8 km/h 63 % 0.0 mm 5.0 W/m2 OVC
07:59 13.9 °C 6.9 °C 1018.2 hPa SW 16.7 km/h 16.7 km/h 63 % 0.0 mm 7.0 W/m2 BKN
08:04 13.9 °C 6.9 °C 1018.2 hPa SW 18.5 km/h 18.5 km/h 63 % 0.0 mm 14.0 W/m2 BKN
08:09 13.9 °C 6.9 °C 1018.2 hPa SSW 12.9 km/h 12.9 km/h 63 % 0.0 mm 19.0 W/m2 BKN
08:14 13.9 °C 6.9 °C 1018.2 hPa SSW 7.4 km/h 7.4 km/h 63 % 0.0 mm 25.0 W/m2 BKN
08:19 13.9 °C 7.2 °C 1018.2 hPa Calm     64 % 0.0 mm 32.0 W/m2 BKN
08:24 13.9 °C 7.2 °C 1018.2 hPa SSW 16.7 km/h 16.7 km/h 64 % 0.0 mm 37.0 W/m2 BKN
08:29 13.9 °C 7.2 °C 1018.2 hPa SW 18.5 km/h 18.5 km/h 64 % 0.0 mm 37.0 W/m2 BKN
08:34 13.9 °C 7.2 °C 1018.2 hPa SW 20.4 km/h 20.4 km/h 64 % 0.0 mm 47.0 W/m2 BKN
08:39 13.9 °C 7.2 °C 1018.2 hPa SW 18.5 km/h 18.5 km/h 64 % 0.0 mm 37.0 W/m2 BKN
08:44 13.9 °C 7.4 °C 1018.2 hPa SW 19.3 km/h 19.3 km/h 65 % 0.0 mm 47.0 W/m2 BKN
08:49 14.4 °C 8.2 °C 1018.2 hPa SW 14.8 km/h 14.8 km/h 66 % 0.0 mm 69.0 W/m2 SCT
08:54 13.9 °C 7.4 °C 1018.2 hPa SW 18.5 km/h 18.5 km/h 65 % 0.0 mm 84.0 W/m2 FEW
08:59 14.4 °C 7.9 °C 1018.2 hPa South 13.0 km/h 13.0 km/h 65 % 0.0 mm 76.0 W/m2 FEW
09:04 14.4 °C 7.9 °C 1018.2 hPa SW 16.7 km/h 16.7 km/h 65 % 0.0 mm 49.0 W/m2 FEW
09:09 14.4 °C 8.2 °C 1018.2 hPa South 18.5 km/h 18.5 km/h 66 % 0.0 mm 54.0 W/m2 SCT
09:14 13.9 °C 7.6 °C 1018.2 hPa South 20.4 km/h 20.4 km/h 66 % 0.0 mm 63.0 W/m2 SCT
09:19 13.9 °C 7.8 °C 1018.2 hPa SSW 18.5 km/h 18.5 km/h 67 % 0.0 mm 44.0 W/m2 SCT
09:24 13.9 °C 7.6 °C 1018.2 hPa SW 18.5 km/h 18.5 km/h 66 % 0.0 mm 30.0 W/m2 SCT
09:29 13.9 °C 7.8 °C 1018.2 hPa SW 17.7 km/h 17.7 km/h 67 % 0.0 mm 25.0 W/m2 BKN
09:34 13.9 °C 7.8 °C 1018.5 hPa SW 18.5 km/h 18.5 km/h 67 % 0.0 mm 35.0 W/m2 BKN
09:39 13.9 °C 8.1 °C 1018.5 hPa SW 18.5 km/h 18.5 km/h 68 % 0.0 mm 46.0 W/m2 BKN
09:44 13.9 °C 8.1 °C 1018.5 hPa WSW 18.5 km/h 18.5 km/h 68 % 0.0 mm 44.0 W/m2 BKN
09:49 13.9 °C 8.1 °C 1018.5 hPa SW 18.5 km/h 18.5 km/h 68 % 0.0 mm 33.0 W/m2 BKN
09:54 13.9 °C 8.1 °C 1018.5 hPa WSW 18.5 km/h 18.5 km/h 68 % 0.0 mm 37.0 W/m2 BKN
09:59 13.9 °C 8.1 °C 1018.5 hPa WSW 14.5 km/h 14.5 km/h 68 % 0.0 mm 44.0 W/m2 BKN
10:04 13.9 °C 8.3 °C 1018.5 hPa WSW 14.8 km/h 14.8 km/h 69 % 0.0 mm 53.0 W/m2 BKN
10:09 13.9 °C 8.3 °C 1018.2 hPa WSW 14.8 km/h 14.8 km/h 69 % 0.0 mm 86.0 W/m2 SCT
10:14 13.9 °C 8.3 °C 1018.5 hPa West 16.7 km/h 16.7 km/h 69 % 0.0 mm 70.0 W/m2 FEW
10:19 13.9 °C 8.3 °C 1018.5 hPa WSW 18.5 km/h 18.5 km/h 69 % 0.0 mm 76.0 W/m2 FEW
10:20 13.9 °C 8.3 °C 1018.5 hPa SW 18.5 km/h 18.5 km/h 69 % 0.0 mm 76.0 W/m2 FEW
10:25 13.9 °C 8.5 °C 1018.5 hPa WSW 14.8 km/h 14.8 km/h 70 % 0.0 mm 88.0 W/m2 FEW
10:30 13.9 °C 8.5 °C 1018.5 hPa West 18.5 km/h 18.5 km/h 70 % 0.0 mm 56.0 W/m2 FEW
10:35 13.9 °C 8.5 °C 1018.8 hPa SW 16.7 km/h 16.7 km/h 70 % 0.0 mm 54.0 W/m2 FEW
10:40 13.9 °C 8.5 °C 1018.8 hPa WSW 14.8 km/h 14.8 km/h 70 % 0.0 mm 53.0 W/m2 SCT
10:45 13.9 °C 8.5 °C 1018.8 hPa WSW 18.5 km/h 18.5 km/h 70 % 0.0 mm 46.0 W/m2 SCT
10:50 13.9 °C 8.5 °C 1018.8 hPa WSW 20.4 km/h 20.4 km/h 70 % 0.0 mm 51.0 W/m2 SCT
10:55 13.9 °C 8.7 °C 1018.8 hPa West 16.1 km/h 16.1 km/h 71 % 0.0 mm 47.0 W/m2 SCT
11:00 13.3 °C 8.2 °C 1018.8 hPa West 14.8 km/h 14.8 km/h 71 % 0.0 mm 84.0 W/m2 SCT
11:05 13.3 °C 8.2 °C 1018.8 hPa WSW 13.0 km/h 13.0 km/h 71 % 0.0 mm 65.0 W/m2 SCT
11:10 13.3 °C 8.6 °C 1018.8 hPa SW 14.8 km/h 14.8 km/h 73 % 0.0 mm 77.0 W/m2 FEW
11:15 13.3 °C 9.0 °C 1018.8 hPa WSW 18.5 km/h 18.5 km/h 75 % 0.0 mm 93.0 W/m2 FEW
11:20 13.3 °C 9.4 °C 1018.5 hPa WSW 14.8 km/h 14.8 km/h 77 % 0.0 mm 127.0 W/m2 CLR
11:25 13.3 °C 9.4 °C 1018.5 hPa SSW 14.8 km/h 14.8 km/h 77 % 0.0 mm 81.0 W/m2 CLR
11:30 12.8 °C 8.8 °C 1018.8 hPa SSW 13.0 km/h 13.0 km/h 77 % 0.0 mm 84.0 W/m2 CLR
11:35 12.8 °C 8.8 °C 1018.8 hPa WSW 18.5 km/h 18.5 km/h 77 % 0.0 mm 70.0 W/m2 FEW
11:40 12.8 °C 8.7 °C 1018.8 hPa SW 24.1 km/h 24.1 km/h 76 % 0.0 mm 90.0 W/m2 FEW
11:45 12.8 °C 8.7 °C 1018.8 hPa SSW 13.0 km/h 13.0 km/h 76 % 0.0 mm 107.0 W/m2 CLR
11:50 12.8 °C 8.7 °C 1018.8 hPa SW 16.7 km/h 16.7 km/h 76 % 0.0 mm 125.0 W/m2 CLR
11:55 12.8 °C 8.7 °C 1018.5 hPa SW 13.0 km/h 13.0 km/h 76 % 0.0 mm 120.0 W/m2 CLR
12:00 12.8 °C 8.8 °C 1018.8 hPa SSW 13.0 km/h 13.0 km/h 77 % 0.0 mm 100.0 W/m2 CLR
12:05 12.8 °C 8.8 °C 1018.5 hPa SW 8.0 km/h 8.0 km/h 77 % 0.0 mm 83.0 W/m2 CLR
12:10 12.8 °C 8.8 °C 1018.5 hPa SSW 11.1 km/h 11.1 km/h 77 % 0.0 mm 84.0 W/m2 CLR
12:15 12.8 °C 9.1 °C 1018.5 hPa South 16.7 km/h 16.7 km/h 78 % 0.0 mm 86.0 W/m2 FEW
12:20 12.8 °C 9.2 °C 1018.5 hPa WSW 5.6 km/h 5.6 km/h 79 % 0.0 mm 90.0 W/m2 FEW
12:25 12.8 °C 9.2 °C 1018.5 hPa SW 18.5 km/h 18.5 km/h 79 % 0.0 mm 93.0 W/m2 CLR
12:30 12.8 °C 9.4 °C 1018.5 hPa SSW 16.7 km/h 16.7 km/h 80 % 0.0 mm 72.0 W/m2 CLR
12:35 12.8 °C 9.6 °C 1018.8 hPa SW 11.3 km/h 11.3 km/h 81 % 0.0 mm 39.0 W/m2 FEW
12:40 12.8 °C 9.8 °C 1018.8 hPa SW 14.8 km/h 14.8 km/h 82 % 0.0 mm 53.0 W/m2 SCT
12:45 12.8 °C 10.2 °C 1018.8 hPa SSW 20.4 km/h 20.4 km/h 84 % 0.5 mm 49.0 W/m2 RA
12:50 12.2 °C 9.8 °C 1018.8 hPa WSW 25.9 km/h 25.9 km/h 85 % 0.8 mm 65.0 W/m2 RA
12:55 12.2 °C 10.1 °C 1018.8 hPa West 18.5 km/h 18.5 km/h 87 % 0.8 mm 60.0 W/m2 SCT
13:00 12.2 °C 10.3 °C 1018.5 hPa WSW 11.1 km/h 11.1 km/h 88 % 0.8 mm 125.0 W/m2 FEW
13:05 12.2 °C 10.3 °C 1018.8 hPa WSW 11.3 km/h 11.3 km/h 88 % 0.8 mm 65.0 W/m2 CLR
13:10 12.2 °C 10.3 °C 1018.8 hPa WSW 14.8 km/h 14.8 km/h 88 % 0.8 mm 86.0 W/m2 FEW
13:15 12.2 °C 10.4 °C 1018.8 hPa SW 14.8 km/h 14.8 km/h 89 % 1.3 mm 90.0 W/m2 RA
13:20 12.2 °C 10.4 °C 1018.8 hPa WSW 11.1 km/h 11.1 km/h 89 % 1.5 mm 51.0 W/m2 RA
13:25 12.2 °C 10.4 °C 1018.8 hPa SW 16.1 km/h 16.1 km/h 89 % 1.5 mm 47.0 W/m2 RA
13:30 11.7 °C 9.9 °C 1018.8 hPa WSW 18.5 km/h 18.5 km/h 89 % 1.5 mm 47.0 W/m2 BKN
13:35 11.7 °C 9.9 °C 1018.8 hPa SW 13.0 km/h 13.0 km/h 89 % 2.3 mm 79.0 W/m2 RA
13:40 11.7 °C 10.1 °C 1018.8 hPa WSW 13.0 km/h 13.0 km/h 90 % 2.3 mm 114.0 W/m2 RA
13:45 11.7 °C 10.1 °C 1018.8 hPa SSW 11.1 km/h 11.1 km/h 90 % 1.8 mm 98.0 W/m2 CLR
13:50 11.7 °C 10.1 °C 1018.8 hPa SW 6.4 km/h 6.4 km/h 90 % 1.5 mm 63.0 W/m2 CLR
13:55 11.7 °C 10.1 °C 1018.8 hPa SW 18.5 km/h 18.5 km/h 90 % 1.5 mm 121.0 W/m2 CLR
14:00 11.7 °C 10.1 °C 1018.8 hPa SW 22.2 km/h 22.2 km/h 90 % 1.5 mm 65.0 W/m2 FEW
14:05 11.7 °C 10.1 °C 1018.8 hPa WSW 16.7 km/h 16.7 km/h 90 % 1.8 mm 98.0 W/m2 RA
14:10 11.7 °C 10.1 °C 1018.5 hPa WSW 18.5 km/h 18.5 km/h 90 % 2.3 mm 155.0 W/m2 RA
14:12 11.7 °C 10.1 °C 1018.8 hPa SSW 9.7 km/h 9.7 km/h 90 % 2.3 mm 104.0 W/m2 RA
14:17 11.7 °C 10.1 °C 1018.8 hPa SSW 16.7 km/h 16.7 km/h 90 % 1.8 mm 104.0 W/m2 CLR
14:22 11.7 °C 10.1 °C 1018.5 hPa SSW 11.1 km/h 11.1 km/h 90 % 1.8 mm 93.0 W/m2 RA
14:27 11.7 °C 10.1 °C 1018.5 hPa SW 7.4 km/h 7.4 km/h 90 % 1.5 mm 128.0 W/m2 CLR
14:32 11.7 °C 10.1 °C 1018.5 hPa WSW 14.5 km/h 14.5 km/h 90 % 1.3 mm 153.0 W/m2 CLR
14:37 12.2 °C 10.6 °C 1018.5 hPa SW 9.7 km/h 9.7 km/h 90 % 1.0 mm 98.0 W/m2 CLR
14:42 12.2 °C 10.4 °C 1018.5 hPa SW 16.7 km/h 16.7 km/h 89 % 0.8 mm 46.0 W/m2 CLR
14:47 11.7 °C 9.9 °C 1018.5 hPa SW 9.3 km/h 9.3 km/h 89 % 0.8 mm 47.0 W/m2 FEW
14:52 11.7 °C 9.9 °C 1018.5 hPa WSW 12.9 km/h 12.9 km/h 89 % 0.8 mm 49.0 W/m2 SCT
14:57 11.7 °C 9.9 °C 1018.5 hPa SW 14.8 km/h 14.8 km/h 89 % 0.8 mm 40.0 W/m2 BKN
15:02 11.7 °C 9.9 °C 1018.5 hPa SW 13.0 km/h 13.0 km/h 89 % 0.5 mm 62.0 W/m2 SCT
15:08 11.7 °C 9.9 °C 1018.2 hPa WSW 11.1 km/h 11.1 km/h 89 % 0.8 mm 63.0 W/m2 RA
15:13 11.7 °C 9.9 °C 1018.5 hPa SW 7.4 km/h 7.4 km/h 89 % 0.5 mm 33.0 W/m2 SCT
15:18 11.7 °C 10.1 °C 1018.2 hPa Calm     90 % 0.5 mm 63.0 W/m2 SCT
15:23 11.7 °C 10.1 °C 1018.2 hPa Calm     90 % 0.5 mm 72.0 W/m2 SCT
15:28 11.7 °C 10.1 °C 1018.5 hPa SW 14.5 km/h 14.5 km/h 90 % 0.8 mm 42.0 W/m2 RA
15:33 11.7 °C 10.1 °C 1018.5 hPa SW 11.1 km/h 11.1 km/h 90 % 1.3 mm 30.0 W/m2 RA
15:38 11.7 °C 10.1 °C 1018.5 hPa SW 14.8 km/h 14.8 km/h 90 % 1.3 mm 30.0 W/m2 BKN
15:43 11.1 °C 9.6 °C 1018.5 hPa WSW 16.7 km/h 16.7 km/h 90 % 1.5 mm 33.0 W/m2 RA
15:48 11.1 °C 9.6 °C 1018.5 hPa WSW 22.2 km/h 22.2 km/h 90 % 2.3 mm 47.0 W/m2 RA
15:53 11.1 °C 9.7 °C 1018.2 hPa SW 13.0 km/h 13.0 km/h 91 % 3.0 mm 62.0 W/m2 RA
15:58 11.1 °C 9.7 °C 1018.2 hPa SW 18.5 km/h 18.5 km/h 91 % 3.8 mm 148.0 W/m2 RA
16:03 11.1 °C 9.7 °C 1018.2 hPa SSW 14.8 km/h 14.8 km/h 91 % 4.1 mm 123.0 W/m2 RA
16:08 11.1 °C 9.7 °C 1018.2 hPa WSW 16.7 km/h 16.7 km/h 91 % 3.6 mm 72.0 W/m2 CLR
16:13 10.6 °C 9.2 °C 1018.5 hPa SSW 18.5 km/h 18.5 km/h 91 % 3.8 mm 44.0 W/m2 RA
16:18 10.6 °C 9.2 °C 1018.2 hPa SSW 13.0 km/h 13.0 km/h 91 % 3.8 mm 74.0 W/m2 SCT
16:23 10.6 °C 9.2 °C 1018.2 hPa South 11.3 km/h 11.3 km/h 91 % 4.1 mm 104.0 W/m2 RA
16:28 10.6 °C 9.2 °C 1018.5 hPa SSW 18.5 km/h 18.5 km/h 91 % 4.1 mm 63.0 W/m2 RA
16:33 10.6 °C 9.0 °C 1018.2 hPa SSW 18.5 km/h 18.5 km/h 90 % 3.8 mm 40.0 W/m2 RA
16:38 10.6 °C 9.2 °C 1018.2 hPa South 14.8 km/h 14.8 km/h 91 % 3.8 mm 86.0 W/m2 SCT
16:43 10.6 °C 9.2 °C 1018.2 hPa SSE 14.8 km/h 14.8 km/h 91 % 3.3 mm 53.0 W/m2 FEW
16:48 10.6 °C 9.2 °C 1017.8 hPa SSE 16.7 km/h 16.7 km/h 91 % 2.5 mm 58.0 W/m2 FEW
16:53 10.6 °C 9.2 °C 1017.8 hPa SSE 20.4 km/h 20.4 km/h 91 % 1.8 mm 46.0 W/m2 SCT
16:58 10.6 °C 9.2 °C 1017.5 hPa SE 11.1 km/h 11.1 km/h 91 % 1.3 mm 123.0 W/m2 SCT
17:03 10.6 °C 9.2 °C 1017.2 hPa SE 6.4 km/h 6.4 km/h 91 % 1.3 mm 149.0 W/m2 RA
17:08 10.6 °C 9.2 °C 1017.2 hPa Calm     91 % 1.3 mm 105.0 W/m2 CLR
17:13 10.6 °C 9.2 °C 1017.5 hPa South 13.0 km/h 13.0 km/h 91 % 1.0 mm 69.0 W/m2 CLR
17:18 11.1 °C 9.7 °C 1017.5 hPa SSE 9.3 km/h 9.3 km/h 91 % 1.0 mm 104.0 W/m2 FEW
17:23 11.1 °C 9.7 °C 1017.2 hPa Calm     91 % 0.8 mm 100.0 W/m2 CLR
17:28 11.1 °C 9.7 °C 1017.2 hPa Calm     91 % 0.5 mm 176.0 W/m2 CLR
17:33 11.1 °C 9.6 °C 1017.2 hPa Calm     90 % 0.3 mm 209.0 W/m2 CLR
17:38 11.7 °C 10.1 °C 1017.2 hPa SE 14.8 km/h 14.8 km/h 90 % 0.3 mm 165.0 W/m2 CLR
17:43 11.7 °C 9.9 °C 1017.2 hPa SE 16.7 km/h 16.7 km/h 89 % 0.3 mm 239.0 W/m2 CLR
17:48 12.2 °C 10.4 °C 1017.2 hPa South 9.3 km/h 9.3 km/h 89 % 0.3 mm 158.0 W/m2 CLR
17:53 12.2 °C 10.4 °C 1016.8 hPa SE 5.6 km/h 5.6 km/h 89 % 0.3 mm 190.0 W/m2 CLR
17:58 12.2 °C 10.3 °C 1016.8 hPa SE 8.0 km/h 8.0 km/h 88 % 0.3 mm 353.0 W/m2 CLR
18:03 12.8 °C 10.8 °C 1016.8 hPa ESE 5.6 km/h 5.6 km/h 88 % 0.0 mm 355.0 W/m2 CLR
18:08 12.8 °C 10.8 °C 1016.8 hPa Calm     88 % 0.0 mm 174.0 W/m2 CLR
18:13 12.8 °C 10.7 °C 1016.8 hPa SSE 3.7 km/h 3.7 km/h 87 % 0.0 mm 146.0 W/m2 CLR
18:18 12.8 °C 10.5 °C 1016.8 hPa Calm     86 % 0.0 mm 165.0 W/m2 CLR
18:23 12.8 °C 10.5 °C 1016.8 hPa Calm     86 % 0.0 mm 98.0 W/m2 CLR
18:28 12.8 °C 10.5 °C 1016.8 hPa Calm     86 % 0.0 mm 127.0 W/m2 CLR
18:33 12.8 °C 10.5 °C 1016.8 hPa SE 1.9 km/h   86 % 0.0 mm 90.0 W/m2 CLR
18:38 12.8 °C 10.5 °C 1016.8 hPa Calm     86 % 0.0 mm 102.0 W/m2 CLR
18:43 12.8 °C 10.5 °C 1016.8 hPa Calm     86 % 0.0 mm 91.0 W/m2 CLR
18:48 12.8 °C 10.3 °C 1017.2 hPa Calm     85 % 0.0 mm 84.0 W/m2 CLR
18:53 12.8 °C 10.2 °C 1016.8 hPa SE 5.6 km/h 5.6 km/h 84 % 0.0 mm 62.0 W/m2 FEW
18:58 12.8 °C 10.2 °C 1016.8 hPa SSE 3.7 km/h 3.7 km/h 84 % 0.0 mm 47.0 W/m2 FEW
19:03 12.2 °C 9.6 °C 1016.8 hPa Calm     84 % 0.0 mm 44.0 W/m2 SCT
19:08 12.2 °C 9.6 °C 1016.8 hPa Calm     84 % 0.0 mm 37.0 W/m2 BKN
19:13 12.2 °C 9.6 °C 1016.8 hPa Calm     84 % 0.0 mm 33.0 W/m2 BKN
19:18 12.2 °C 9.6 °C 1016.8 hPa Calm     84 % 0.0 mm 44.0 W/m2 BKN
19:23 12.2 °C 9.6 °C 1016.8 hPa Calm     84 % 0.0 mm 39.0 W/m2 BKN
19:28 12.2 °C 9.8 °C 1016.8 hPa Calm     85 % 0.0 mm 35.0 W/m2 BKN
19:33 12.2 °C 9.9 °C 1016.8 hPa Calm     86 % 0.0 mm 25.0 W/m2 BKN
19:38 12.2 °C 9.8 °C 1016.8 hPa Calm     85 % 0.0 mm 18.0 W/m2 BKN
19:43 12.2 °C 9.8 °C 1016.8 hPa Calm     85 % 0.0 mm 16.0 W/m2 BKN
19:48 12.2 °C 9.8 °C 1016.8 hPa Calm     85 % 0.0 mm 11.0 W/m2 BKN
19:58 12.2 °C 9.9 °C 1016.8 hPa Calm     86 % 0.0 mm 7.0 W/m2 BKN
20:03 12.2 °C 10.1 °C 1016.8 hPa Calm     87 % 0.0 mm 5.0 W/m2 OVC
20:08 11.7 °C 9.6 °C 1016.8 hPa Calm     87 % 0.0 mm 0.0 W/m2 OVC
20:13 11.7 °C 9.4 °C 1016.8 hPa Calm     86 % 0.0 mm 0.0 W/m2 OVC
20:18 11.7 °C 9.2 °C 1016.8 hPa Calm     85 % 0.0 mm 0.0 W/m2 OVC
20:23 11.7 °C 9.2 °C 1016.8 hPa Calm     85 % 0.0 mm 0.0 W/m2 CLR
20:28 11.7 °C 9.2 °C 1016.8 hPa Calm     85 % 0.0 mm 0.0 W/m2 CLR
20:33 11.7 °C 9.1 °C 1016.8 hPa Calm     84 % 0.0 mm 0.0 W/m2 CLR
20:38 11.7 °C 9.1 °C 1016.8 hPa Calm     84 % 0.0 mm 0.0 W/m2 CLR
20:43 11.7 °C 9.1 °C 1016.8 hPa Calm     84 % 0.0 mm 0.0 W/m2 CLR
20:48 11.7 °C 9.2 °C 1016.8 hPa Calm     85 % 0.0 mm 0.0 W/m2 CLR
20:53 11.1 °C 8.7 °C 1017.2 hPa Calm     85 % 0.0 mm 0.0 W/m2 CLR
20:58 11.1 °C 8.7 °C 1017.2 hPa Calm     85 % 0.0 mm 0.0 W/m2 CLR
21:03 11.1 °C 8.8 °C 1017.2 hPa Calm     86 % 0.0 mm 0.0 W/m2 CLR
21:09 11.1 °C 8.8 °C 1017.5 hPa Calm     86 % 0.0 mm 0.0 W/m2 CLR
21:14 10.6 °C 8.3 °C 1017.5 hPa Calm     86 % 0.0 mm 0.0 W/m2 CLR
21:19 10.6 °C 8.5 °C 1017.5 hPa Calm     87 % 0.0 mm 0.0 W/m2 CLR
21:24 10.6 °C 8.5 °C 1017.5 hPa Calm     87 % 0.0 mm 0.0 W/m2 CLR
21:29 10.0 °C 8.1 °C 1017.5 hPa Calm     88 % 0.0 mm 0.0 W/m2 CLR
21:34 10.0 °C 8.1 °C 1017.5 hPa Calm     88 % 0.0 mm 0.0 W/m2 CLR
21:39 10.0 °C 8.3 °C 1017.5 hPa Calm     89 % 0.0 mm 0.0 W/m2 CLR
21:44 10.0 °C 8.3 °C 1017.8 hPa Calm     89 % 0.0 mm 0.0 W/m2 CLR
21:49 10.0 °C 8.3 °C 1017.8 hPa Calm     89 % 0.0 mm 0.0 W/m2 CLR
21:54 10.0 °C 8.3 °C 1017.8 hPa Calm     89 % 0.0 mm 0.0 W/m2 CLR
21:59 10.0 °C 8.4 °C 1017.8 hPa Calm     90 % 0.0 mm 0.0 W/m2 CLR
22:04 10.0 °C 8.4 °C 1017.8 hPa Calm     90 % 0.0 mm 0.0 W/m2 CLR
22:09 10.0 °C 8.4 °C 1017.8 hPa Calm     90 % 0.0 mm 0.0 W/m2 CLR
22:14 9.4 °C 7.9 °C 1017.8 hPa Calm     90 % 0.0 mm 0.0 W/m2 CLR
22:19 9.4 °C 7.9 °C 1017.8 hPa Calm     90 % 0.0 mm 0.0 W/m2 CLR
22:24 9.4 °C 7.9 °C 1017.8 hPa Calm     90 % 0.0 mm 0.0 W/m2 CLR
22:29 9.4 °C 7.9 °C 1017.8 hPa Calm     90 % 0.0 mm 0.0 W/m2 CLR
22:34 8.9 °C 7.3 °C 1017.8 hPa Calm     90 % 0.0 mm 0.0 W/m2 CLR
22:39 8.9 °C 7.3 °C 1017.8 hPa Calm     90 % 0.0 mm 0.0 W/m2 CLR
22:44 8.9 °C 7.3 °C 1017.8 hPa Calm     90 % 0.0 mm 0.0 W/m2 CLR
22:49 8.9 °C 7.3 °C 1017.8 hPa Calm     90 % 0.0 mm 0.0 W/m2 CLR
22:54 8.3 °C 6.8 °C 1017.8 hPa Calm     90 % 0.0 mm 0.0 W/m2 CLR
22:59 8.3 °C 6.6 °C 1017.8 hPa Calm     89 % 0.0 mm 0.0 W/m2 CLR
23:04 8.3 °C 6.3 °C 1017.8 hPa SSE 7.4 km/h 7.4 km/h 87 % 0.0 mm 0.0 W/m2 CLR
23:09 8.3 °C 6.1 °C 1017.8 hPa South 5.6 km/h 5.6 km/h 86 % 0.0 mm 0.0 W/m2 CLR
23:14 8.3 °C 6.1 °C 1018.2 hPa South 5.6 km/h 5.6 km/h 86 % 0.0 mm 0.0 W/m2 CLR
23:19 8.3 °C 6.1 °C 1018.2 hPa South 5.6 km/h 5.6 km/h 86 % 0.0 mm 0.0 W/m2 CLR
23:24 8.3 °C 6.1 °C 1018.2 hPa South 9.3 km/h 9.3 km/h 86 % 0.0 mm 0.0 W/m2 CLR
23:29 8.9 °C 6.5 °C 1018.2 hPa South 14.8 km/h 14.8 km/h 85 % 0.0 mm 0.0 W/m2 CLR
23:34 8.9 °C 6.2 °C 1018.2 hPa SSW 13.0 km/h 13.0 km/h 83 % 0.0 mm 0.0 W/m2 CLR
23:39 8.9 °C 5.8 °C 1018.2 hPa SSW 14.8 km/h 14.8 km/h 81 % 0.0 mm 0.0 W/m2 CLR
23:44 9.4 °C 6.0 °C 1018.2 hPa SSW 18.5 km/h 18.5 km/h 79 % 0.0 mm 0.0 W/m2 CLR
23:49 9.4 °C 5.6 °C 1018.2 hPa SSW 16.7 km/h 16.7 km/h 77 % 0.0 mm 0.0 W/m2 CLR
23:54 9.4 °C 5.6 °C 1018.2 hPa SSW 16.7 km/h 16.7 km/h 77 % 0.0 mm 0.0 W/m2 CLR
23:59 10.0 °C 6.2 °C 1018.2 hPa SSW 13.0 km/h 13.0 km/h 77 % 0.0 mm 0.0 W/m2 CLR
Lo Temps de Massalio
Compliments of Weather Underground - 1.25 mb